sensor_id;sensor_type;location;lat;lon;timestamp;temperature;humidity
76838;DHT22;65797;47.352;8.164;2023-11-18T00:00:05;5.20;1.00
76838;DHT22;65797;47.352;8.164;2023-11-18T00:02:37;5.20;39.30
76838;DHT22;65797;47.352;8.164;2023-11-18T00:05:02;5.20;92.30
76838;DHT22;65797;47.352;8.164;2023-11-18T00:07:28;5.10;99.90
76838;DHT22;65797;47.352;8.164;2023-11-18T00:09:54;5.10;34.20
76838;DHT22;65797;47.352;8.164;2023-11-18T00:12:20;5.00;1.00
76838;DHT22;65797;47.352;8.164;2023-11-18T00:14:48;5.00;1.00
76838;DHT22;65797;47.352;8.164;2023-11-18T00:17:14;5.00;1.00
76838;DHT22;65797;47.352;8.164;2023-11-18T00:19:41;4.90;1.00
76838;DHT22;65797;47.352;8.164;2023-11-18T00:22:08;4.80;1.00
76838;DHT22;65797;47.352;8.164;2023-11-18T00:24:34;4.80;1.00
76838;DHT22;65797;47.352;8.164;2023-11-18T00:27:01;4.70;1.00
76838;DHT22;65797;47.352;8.164;2023-11-18T00:29:32;4.70;1.00
76838;DHT22;65797;47.352;8.164;2023-11-18T00:31:58;4.60;1.00
76838;DHT22;65797;47.352;8.164;2023-11-18T00:37:09;4.60;99.90
76838;DHT22;65797;47.352;8.164;2023-11-18T00:39:35;4.50;99.90
76838;DHT22;65797;47.352;8.164;2023-11-18T00:44:37;4.40;99.90
76838;DHT22;65797;47.352;8.164;2023-11-18T00:47:03;4.30;1.00
76838;DHT22;65797;47.352;8.164;2023-11-18T00:49:29;4.30;1.00
76838;DHT22;65797;47.352;8.164;2023-11-18T00:51:55;4.20;1.00
76838;DHT22;65797;47.352;8.164;2023-11-18T00:54:21;4.20;1.00
76838;DHT22;65797;47.352;8.164;2023-11-18T00:56:47;4.10;1.00
76838;DHT22;65797;47.352;8.164;2023-11-18T00:59:13;4.10;1.00
76838;DHT22;65797;47.352;8.164;2023-11-18T01:01:39;4.00;14.80
76838;DHT22;65797;47.352;8.164;2023-11-18T01:04:08;3.90;1.00
76838;DHT22;65797;47.352;8.164;2023-11-18T01:06:34;3.80;1.00
76838;DHT22;65797;47.352;8.164;2023-11-18T01:09:00;3.70;1.00
76838;DHT22;65797;47.352;8.164;2023-11-18T01:11:26;3.60;48.50
76838;DHT22;65797;47.352;8.164;2023-11-18T01:13:52;3.70;99.90
76838;DHT22;65797;47.352;8.164;2023-11-18T01:16:20;3.60;99.90
76838;DHT22;65797;47.352;8.164;2023-11-18T01:18:46;3.60;1.00
76838;DHT22;65797;47.352;8.164;2023-11-18T01:21:12;3.60;1.00
76838;DHT22;65797;47.352;8.164;2023-11-18T01:23:38;3.50;99.90
76838;DHT22;65797;47.352;8.164;2023-11-18T01:26:08;3.50;99.90
76838;DHT22;65797;47.352;8.164;2023-11-18T01:28:37;3.50;99.90
76838;DHT22;65797;47.352;8.164;2023-11-18T01:31:05;3.40;99.90
76838;DHT22;65797;47.352;8.164;2023-11-18T01:33:32;3.40;99.90
76838;DHT22;65797;47.352;8.164;2023-11-18T01:35:58;3.40;99.90
76838;DHT22;65797;47.352;8.164;2023-11-18T01:38:24;3.30;99.90
76838;DHT22;65797;47.352;8.164;2023-11-18T01:40:52;3.20;1.00
76838;DHT22;65797;47.352;8.164;2023-11-18T01:43:19;3.20;1.00
76838;DHT22;65797;47.352;8.164;2023-11-18T01:45:45;3.20;99.90
76838;DHT22;65797;47.352;8.164;2023-11-18T01:48:12;3.20;99.90
76838;DHT22;65797;47.352;8.164;2023-11-18T01:50:40;3.20;99.90
76838;DHT22;65797;47.352;8.164;2023-11-18T01:53:07;3.10;99.90
76838;DHT22;65797;47.352;8.164;2023-11-18T01:55:33;3.10;91.20
76838;DHT22;65797;47.352;8.164;2023-11-18T01:58:00;3.10;99.90
76838;DHT22;65797;47.352;8.164;2023-11-18T02:00:37;3.00;99.90
76838;DHT22;65797;47.352;8.164;2023-11-18T02:03:05;3.00;91.10
76838;DHT22;65797;47.352;8.164;2023-11-18T02:05:32;3.00;99.90
76838;DHT22;65797;47.352;8.164;2023-11-18T02:08:03;3.00;74.30
76838;DHT22;65797;47.352;8.164;2023-11-18T02:10:33;2.90;1.00
76838;DHT22;65797;47.352;8.164;2023-11-18T02:15:28;2.80;1.00
76838;DHT22;65797;47.352;8.164;2023-11-18T02:17:55;2.70;1.00
76838;DHT22;65797;47.352;8.164;2023-11-18T02:20:23;2.70;1.00
76838;DHT22;65797;47.352;8.164;2023-11-18T02:22:50;2.70;28.10
76838;DHT22;65797;47.352;8.164;2023-11-18T02:25:17;2.70;99.90
76838;DHT22;65797;47.352;8.164;2023-11-18T02:27:45;2.70;99.90
76838;DHT22;65797;47.352;8.164;2023-11-18T02:30:12;2.70;99.90
76838;DHT22;65797;47.352;8.164;2023-11-18T02:35:30;2.60;1.00
76838;DHT22;65797;47.352;8.164;2023-11-18T02:37:57;2.50;1.00
76838;DHT22;65797;47.352;8.164;2023-11-18T02:40:32;2.50;6.50
76838;DHT22;65797;47.352;8.164;2023-11-18T02:43:00;2.50;24.20
76838;DHT22;65797;47.352;8.164;2023-11-18T02:45:26;2.50;99.90
76838;DHT22;65797;47.352;8.164;2023-11-18T02:47:53;2.40;99.90
76838;DHT22;65797;47.352;8.164;2023-11-18T02:50:24;2.40;99.90
76838;DHT22;65797;47.352;8.164;2023-11-18T02:52:49;2.40;1.00
76838;DHT22;65797;47.352;8.164;2023-11-18T02:55:15;2.40;99.90
76838;DHT22;65797;47.352;8.164;2023-11-18T02:57:41;2.40;99.90
76838;DHT22;65797;47.352;8.164;2023-11-18T03:00:07;2.30;85.00
76838;DHT22;65797;47.352;8.164;2023-11-18T03:02:49;2.30;1.00
76838;DHT22;65797;47.352;8.164;2023-11-18T03:05:15;2.20;1.00
76838;DHT22;65797;47.352;8.164;2023-11-18T03:07:42;2.20;99.90
76838;DHT22;65797;47.352;8.164;2023-11-18T03:10:08;2.20;99.90
76838;DHT22;65797;47.352;8.164;2023-11-18T03:12:40;2.10;99.90
76838;DHT22;65797;47.352;8.164;2023-11-18T03:15:06;2.10;99.90
76838;DHT22;65797;47.352;8.164;2023-11-18T03:17:35;2.10;1.00
76838;DHT22;65797;47.352;8.164;2023-11-18T03:20:00;2.10;1.00
76838;DHT22;65797;47.352;8.164;2023-11-18T03:22:26;2.10;1.00
76838;DHT22;65797;47.352;8.164;2023-11-18T03:24:52;2.10;1.00
76838;DHT22;65797;47.352;8.164;2023-11-18T03:27:17;2.10;99.90
76838;DHT22;65797;47.352;8.164;2023-11-18T03:29:43;2.00;99.90
76838;DHT22;65797;47.352;8.164;2023-11-18T03:32:11;2.00;99.90
76838;DHT22;65797;47.352;8.164;2023-11-18T03:34:38;2.00;99.90
76838;DHT22;65797;47.352;8.164;2023-11-18T03:37:04;2.00;99.90
76838;DHT22;65797;47.352;8.164;2023-11-18T03:39:30;1.90;99.90
76838;DHT22;65797;47.352;8.164;2023-11-18T03:41:56;1.90;44.10
76838;DHT22;65797;47.352;8.164;2023-11-18T03:44:23;1.80;99.90
76838;DHT22;65797;47.352;8.164;2023-11-18T03:46:51;1.80;99.90
76838;DHT22;65797;47.352;8.164;2023-11-18T03:49:17;1.80;99.90
76838;DHT22;65797;47.352;8.164;2023-11-18T03:51:45;1.80;99.90
76838;DHT22;65797;47.352;8.164;2023-11-18T03:54:10;1.70;99.90
76838;DHT22;65797;47.352;8.164;2023-11-18T03:56:37;1.70;99.90
76838;DHT22;65797;47.352;8.164;2023-11-18T03:59:02;1.70;99.90
76838;DHT22;65797;47.352;8.164;2023-11-18T04:01:30;1.60;99.90
76838;DHT22;65797;47.352;8.164;2023-11-18T04:03:55;1.60;99.90
76838;DHT22;65797;47.352;8.164;2023-11-18T04:06:22;1.60;99.90
76838;DHT22;65797;47.352;8.164;2023-11-18T04:08:48;1.60;99.90
76838;DHT22;65797;47.352;8.164;2023-11-18T04:11:17;1.60;1.00
76838;DHT22;65797;47.352;8.164;2023-11-18T04:13:44;1.60;1.00
76838;DHT22;65797;47.352;8.164;2023-11-18T04:16:13;1.60;1.00
76838;DHT22;65797;47.352;8.164;2023-11-18T04:18:41;1.60;99.90
76838;DHT22;65797;47.352;8.164;2023-11-18T04:21:08;1.50;99.90
76838;DHT22;65797;47.352;8.164;2023-11-18T04:23:42;1.50;99.90
76838;DHT22;65797;47.352;8.164;2023-11-18T04:26:08;1.40;99.90
76838;DHT22;65797;47.352;8.164;2023-11-18T04:28:35;1.50;99.90
76838;DHT22;65797;47.352;8.164;2023-11-18T04:31:01;1.50;1.00
76838;DHT22;65797;47.352;8.164;2023-11-18T04:33:28;1.40;99.90
76838;DHT22;65797;47.352;8.164;2023-11-18T04:35:55;1.40;99.90
76838;DHT22;65797;47.352;8.164;2023-11-18T04:38:25;1.40;99.90
76838;DHT22;65797;47.352;8.164;2023-11-18T04:40:52;1.40;99.90
76838;DHT22;65797;47.352;8.164;2023-11-18T04:43:21;1.30;99.90
76838;DHT22;65797;47.352;8.164;2023-11-18T04:45:50;1.40;1.00
76838;DHT22;65797;47.352;8.164;2023-11-18T04:48:16;1.40;1.00
76838;DHT22;65797;47.352;8.164;2023-11-18T04:50:42;1.30;99.90
76838;DHT22;65797;47.352;8.164;2023-11-18T04:53:17;1.30;99.90
76838;DHT22;65797;47.352;8.164;2023-11-18T04:55:44;1.20;99.90
76838;DHT22;65797;47.352;8.164;2023-11-18T04:58:13;1.30;99.90
76838;DHT22;65797;47.352;8.164;2023-11-18T05:00:39;1.30;99.90
76838;DHT22;65797;47.352;8.164;2023-11-18T05:03:06;1.30;99.90
76838;DHT22;65797;47.352;8.164;2023-11-18T05:05:39;1.30;99.90
76838;DHT22;65797;47.352;8.164;2023-11-18T05:08:23;1.20;99.90
76838;DHT22;65797;47.352;8.164;2023-11-18T05:10:49;1.20;99.90
76838;DHT22;65797;47.352;8.164;2023-11-18T05:13:16;1.20;1.00
76838;DHT22;65797;47.352;8.164;2023-11-18T05:15:43;1.20;1.00
76838;DHT22;65797;47.352;8.164;2023-11-18T05:18:11;1.20;1.00
76838;DHT22;65797;47.352;8.164;2023-11-18T05:20:43;1.20;1.00
76838;DHT22;65797;47.352;8.164;2023-11-18T05:23:10;1.20;1.00
76838;DHT22;65797;47.352;8.164;2023-11-18T05:25:43;1.20;1.00
76838;DHT22;65797;47.352;8.164;2023-11-18T05:28:09;1.30;1.00
76838;DHT22;65797;47.352;8.164;2023-11-18T05:30:35;1.30;1.00
76838;DHT22;65797;47.352;8.164;2023-11-18T05:33:05;1.30;1.00
76838;DHT22;65797;47.352;8.164;2023-11-18T05:35:32;1.30;1.00
76838;DHT22;65797;47.352;8.164;2023-11-18T05:37:58;1.30;1.00
76838;DHT22;65797;47.352;8.164;2023-11-18T05:40:26;1.30;1.00
76838;DHT22;65797;47.352;8.164;2023-11-18T05:42:53;1.40;1.00
76838;DHT22;65797;47.352;8.164;2023-11-18T05:45:20;1.40;1.00
76838;DHT22;65797;47.352;8.164;2023-11-18T05:47:58;1.30;1.00
76838;DHT22;65797;47.352;8.164;2023-11-18T05:50:30;1.40;1.00
76838;DHT22;65797;47.352;8.164;2023-11-18T05:52:56;1.40;2.60
76838;DHT22;65797;47.352;8.164;2023-11-18T05:55:22;1.40;99.90
76838;DHT22;65797;47.352;8.164;2023-11-18T05:57:48;1.40;99.90
76838;DHT22;65797;47.352;8.164;2023-11-18T06:00:15;1.50;99.90
76838;DHT22;65797;47.352;8.164;2023-11-18T06:02:42;1.50;99.90
76838;DHT22;65797;47.352;8.164;2023-11-18T06:05:08;1.50;99.90
76838;DHT22;65797;47.352;8.164;2023-11-18T06:07:35;1.50;99.90
76838;DHT22;65797;47.352;8.164;2023-11-18T06:10:01;1.60;99.90
76838;DHT22;65797;47.352;8.164;2023-11-18T06:12:31;1.60;1.00
76838;DHT22;65797;47.352;8.164;2023-11-18T06:14:58;1.60;1.00
76838;DHT22;65797;47.352;8.164;2023-11-18T06:17:23;1.60;1.00
76838;DHT22;65797;47.352;8.164;2023-11-18T06:19:49;1.70;1.00
76838;DHT22;65797;47.352;8.164;2023-11-18T06:22:15;1.70;1.00
76838;DHT22;65797;47.352;8.164;2023-11-18T06:24:41;1.70;1.00
76838;DHT22;65797;47.352;8.164;2023-11-18T06:27:07;1.70;1.00
76838;DHT22;65797;47.352;8.164;2023-11-18T06:29:35;1.70;1.00
76838;DHT22;65797;47.352;8.164;2023-11-18T06:32:01;1.70;1.00
76838;DHT22;65797;47.352;8.164;2023-11-18T06:34:27;1.80;1.00
76838;DHT22;65797;47.352;8.164;2023-11-18T06:36:53;1.80;1.00
76838;DHT22;65797;47.352;8.164;2023-11-18T06:39:19;1.80;1.00
76838;DHT22;65797;47.352;8.164;2023-11-18T06:41:55;1.80;1.00
76838;DHT22;65797;47.352;8.164;2023-11-18T06:44:21;1.80;1.00
76838;DHT22;65797;47.352;8.164;2023-11-18T06:46:49;1.90;1.00
76838;DHT22;65797;47.352;8.164;2023-11-18T06:49:16;1.90;1.00
76838;DHT22;65797;47.352;8.164;2023-11-18T06:51:43;1.90;1.00
76838;DHT22;65797;47.352;8.164;2023-11-18T06:54:09;1.90;1.00
76838;DHT22;65797;47.352;8.164;2023-11-18T06:56:36;2.00;1.00
76838;DHT22;65797;47.352;8.164;2023-11-18T06:59:08;2.00;1.00
76838;DHT22;65797;47.352;8.164;2023-11-18T07:01:35;2.00;1.00
76838;DHT22;65797;47.352;8.164;2023-11-18T07:04:02;2.00;1.00
76838;DHT22;65797;47.352;8.164;2023-11-18T07:06:27;2.10;1.00
76838;DHT22;65797;47.352;8.164;2023-11-18T07:08:54;2.00;1.00
76838;DHT22;65797;47.352;8.164;2023-11-18T07:11:25;2.00;1.00
76838;DHT22;65797;47.352;8.164;2023-11-18T07:13:51;2.10;1.00
76838;DHT22;65797;47.352;8.164;2023-11-18T07:16:23;2.20;1.00
76838;DHT22;65797;47.352;8.164;2023-11-18T07:18:49;2.10;1.00
76838;DHT22;65797;47.352;8.164;2023-11-18T07:21:14;2.20;1.00
76838;DHT22;65797;47.352;8.164;2023-11-18T07:23:40;2.20;1.00
76838;DHT22;65797;47.352;8.164;2023-11-18T07:26:07;2.20;1.00
76838;DHT22;65797;47.352;8.164;2023-11-18T07:28:35;2.30;1.00
76838;DHT22;65797;47.352;8.164;2023-11-18T07:31:01;2.30;1.00
76838;DHT22;65797;47.352;8.164;2023-11-18T07:33:30;2.30;1.00
76838;DHT22;65797;47.352;8.164;2023-11-18T07:35:59;2.40;1.00
76838;DHT22;65797;47.352;8.164;2023-11-18T07:38:25;2.40;1.00
76838;DHT22;65797;47.352;8.164;2023-11-18T07:40:52;2.50;1.00
76838;DHT22;65797;47.352;8.164;2023-11-18T07:43:22;2.50;1.00
76838;DHT22;65797;47.352;8.164;2023-11-18T07:45:48;2.60;17.00
76838;DHT22;65797;47.352;8.164;2023-11-18T07:50:54;2.70;35.70
76838;DHT22;65797;47.352;8.164;2023-11-18T07:53:19;2.80;68.70
76838;DHT22;65797;47.352;8.164;2023-11-18T07:55:46;3.00;96.20
76838;DHT22;65797;47.352;8.164;2023-11-18T07:58:15;3.10;99.90
76838;DHT22;65797;47.352;8.164;2023-11-18T08:00:43;3.20;99.90
76838;DHT22;65797;47.352;8.164;2023-11-18T08:03:11;3.30;99.90
76838;DHT22;65797;47.352;8.164;2023-11-18T08:05:41;3.40;99.90
76838;DHT22;65797;47.352;8.164;2023-11-18T08:08:12;3.50;99.90
76838;DHT22;65797;47.352;8.164;2023-11-18T08:10:39;3.40;20.50
76838;DHT22;65797;47.352;8.164;2023-11-18T08:13:06;3.40;1.00
76838;DHT22;65797;47.352;8.164;2023-11-18T08:15:37;3.50;16.70
76838;DHT22;65797;47.352;8.164;2023-11-18T08:18:03;3.60;46.10
76838;DHT22;65797;47.352;8.164;2023-11-18T08:20:29;3.50;3.80
76838;DHT22;65797;47.352;8.164;2023-11-18T08:22:56;3.50;1.00
76838;DHT22;65797;47.352;8.164;2023-11-18T08:25:21;3.50;1.00
76838;DHT22;65797;47.352;8.164;2023-11-18T08:27:47;3.50;1.00
76838;DHT22;65797;47.352;8.164;2023-11-18T08:30:14;3.30;1.00
76838;DHT22;65797;47.352;8.164;2023-11-18T08:32:41;3.20;1.00
76838;DHT22;65797;47.352;8.164;2023-11-18T08:35:10;3.30;1.00
76838;DHT22;65797;47.352;8.164;2023-11-18T08:37:39;3.40;1.00
76838;DHT22;65797;47.352;8.164;2023-11-18T08:40:06;3.40;1.00
76838;DHT22;65797;47.352;8.164;2023-11-18T08:42:33;3.50;1.00
76838;DHT22;65797;47.352;8.164;2023-11-18T08:44:59;3.70;1.00
76838;DHT22;65797;47.352;8.164;2023-11-18T08:47:28;3.90;1.00
76838;DHT22;65797;47.352;8.164;2023-11-18T08:49:57;3.80;1.00
76838;DHT22;65797;47.352;8.164;2023-11-18T08:52:23;3.90;1.00
76838;DHT22;65797;47.352;8.164;2023-11-18T08:54:51;4.00;1.00
76838;DHT22;65797;47.352;8.164;2023-11-18T08:57:38;4.00;1.00
76838;DHT22;65797;47.352;8.164;2023-11-18T09:00:18;4.20;1.00
76838;DHT22;65797;47.352;8.164;2023-11-18T09:03:04;4.20;1.00
76838;DHT22;65797;47.352;8.164;2023-11-18T09:05:32;4.30;1.00
76838;DHT22;65797;47.352;8.164;2023-11-18T09:08:02;4.30;99.90
76838;DHT22;65797;47.352;8.164;2023-11-18T09:10:31;4.40;1.00
76838;DHT22;65797;47.352;8.164;2023-11-18T09:12:57;4.60;1.00
76838;DHT22;65797;47.352;8.164;2023-11-18T09:15:22;4.60;1.00
76838;DHT22;65797;47.352;8.164;2023-11-18T09:17:49;4.70;99.90
76838;DHT22;65797;47.352;8.164;2023-11-18T09:20:15;4.70;1.00
76838;DHT22;65797;47.352;8.164;2023-11-18T09:22:48;4.60;1.00
76838;DHT22;65797;47.352;8.164;2023-11-18T09:25:14;4.70;99.90
76838;DHT22;65797;47.352;8.164;2023-11-18T09:27:42;4.70;1.00
76838;DHT22;65797;47.352;8.164;2023-11-18T09:30:08;4.80;99.90
76838;DHT22;65797;47.352;8.164;2023-11-18T09:32:46;4.90;99.90
76838;DHT22;65797;47.352;8.164;2023-11-18T09:35:13;5.00;99.90
76838;DHT22;65797;47.352;8.164;2023-11-18T09:37:39;5.00;99.90
76838;DHT22;65797;47.352;8.164;2023-11-18T09:40:13;5.10;99.90
76838;DHT22;65797;47.352;8.164;2023-11-18T09:42:39;5.20;99.90
76838;DHT22;65797;47.352;8.164;2023-11-18T09:45:05;5.20;99.90
76838;DHT22;65797;47.352;8.164;2023-11-18T09:47:42;5.20;99.90
76838;DHT22;65797;47.352;8.164;2023-11-18T09:50:10;5.20;3.10
76838;DHT22;65797;47.352;8.164;2023-11-18T09:52:45;5.20;99.90
76838;DHT22;65797;47.352;8.164;2023-11-18T09:55:26;5.10;1.00
76838;DHT22;65797;47.352;8.164;2023-11-18T09:57:59;5.10;72.40
76838;DHT22;65797;47.352;8.164;2023-11-18T10:00:29;5.20;99.90
76838;DHT22;65797;47.352;8.164;2023-11-18T10:02:59;5.20;1.00
76838;DHT22;65797;47.352;8.164;2023-11-18T10:05:29;5.30;1.00
76838;DHT22;65797;47.352;8.164;2023-11-18T10:07:55;5.40;1.00
76838;DHT22;65797;47.352;8.164;2023-11-18T10:10:24;5.40;1.00
76838;DHT22;65797;47.352;8.164;2023-11-18T10:12:52;5.30;99.90
76838;DHT22;65797;47.352;8.164;2023-11-18T10:15:20;5.40;99.90
76838;DHT22;65797;47.352;8.164;2023-11-18T10:17:51;5.40;1.00
76838;DHT22;65797;47.352;8.164;2023-11-18T10:23:11;5.40;1.00
76838;DHT22;65797;47.352;8.164;2023-11-18T10:25:41;5.40;99.90
76838;DHT22;65797;47.352;8.164;2023-11-18T10:30:47;5.70;99.90
76838;DHT22;65797;47.352;8.164;2023-11-18T10:33:17;5.80;99.90
76838;DHT22;65797;47.352;8.164;2023-11-18T10:35:51;5.80;1.00
76838;DHT22;65797;47.352;8.164;2023-11-18T10:38:17;5.80;99.90
76838;DHT22;65797;47.352;8.164;2023-11-18T10:40:43;5.90;1.00
76838;DHT22;65797;47.352;8.164;2023-11-18T10:43:09;5.80;1.00
76838;DHT22;65797;47.352;8.164;2023-11-18T10:45:38;5.90;99.90
76838;DHT22;65797;47.352;8.164;2023-11-18T10:48:08;6.00;99.90
76838;DHT22;65797;47.352;8.164;2023-11-18T10:50:34;6.00;1.00
76838;DHT22;65797;47.352;8.164;2023-11-18T10:53:05;6.00;99.90
76838;DHT22;65797;47.352;8.164;2023-11-18T10:55:40;6.10;1.00
76838;DHT22;65797;47.352;8.164;2023-11-18T10:58:06;6.00;99.90
76838;DHT22;65797;47.352;8.164;2023-11-18T11:00:51;6.00;1.00
76838;DHT22;65797;47.352;8.164;2023-11-18T11:03:21;6.00;1.00
76838;DHT22;65797;47.352;8.164;2023-11-18T11:05:50;6.10;1.00
76838;DHT22;65797;47.352;8.164;2023-11-18T11:08:17;6.00;99.90
76838;DHT22;65797;47.352;8.164;2023-11-18T11:10:45;6.00;1.00
76838;DHT22;65797;47.352;8.164;2023-11-18T11:13:11;6.00;1.00
76838;DHT22;65797;47.352;8.164;2023-11-18T11:15:41;6.00;99.90
76838;DHT22;65797;47.352;8.164;2023-11-18T11:18:20;6.00;1.00
76838;DHT22;65797;47.352;8.164;2023-11-18T11:23:53;5.80;99.90
76838;DHT22;65797;47.352;8.164;2023-11-18T11:29:30;6.00;1.00
76838;DHT22;65797;47.352;8.164;2023-11-18T11:32:16;6.00;99.90
76838;DHT22;65797;47.352;8.164;2023-11-18T11:35:02;6.10;1.00
76838;DHT22;65797;47.352;8.164;2023-11-18T11:37:34;6.10;99.90
76838;DHT22;65797;47.352;8.164;2023-11-18T11:40:02;6.10;99.90
76838;DHT22;65797;47.352;8.164;2023-11-18T11:42:35;6.10;99.90
76838;DHT22;65797;47.352;8.164;2023-11-18T11:45:01;6.10;99.90
76838;DHT22;65797;47.352;8.164;2023-11-18T11:47:29;6.10;99.90
76838;DHT22;65797;47.352;8.164;2023-11-18T11:50:15;6.10;99.90
76838;DHT22;65797;47.352;8.164;2023-11-18T11:53:03;6.20;99.90
76838;DHT22;65797;47.352;8.164;2023-11-18T11:55:48;6.10;1.00
76838;DHT22;65797;47.352;8.164;2023-11-18T11:58:30;6.10;1.00
76838;DHT22;65797;47.352;8.164;2023-11-18T12:01:14;6.10;1.00
76838;DHT22;65797;47.352;8.164;2023-11-18T12:03:43;6.10;99.90
76838;DHT22;65797;47.352;8.164;2023-11-18T12:06:19;6.20;1.00
76838;DHT22;65797;47.352;8.164;2023-11-18T12:08:51;6.20;99.90
76838;DHT22;65797;47.352;8.164;2023-11-18T12:11:20;6.20;99.90
76838;DHT22;65797;47.352;8.164;2023-11-18T12:14:04;6.20;99.90
76838;DHT22;65797;47.352;8.164;2023-11-18T12:17:05;6.30;99.90
76838;DHT22;65797;47.352;8.164;2023-11-18T12:19:47;6.20;99.90
76838;DHT22;65797;47.352;8.164;2023-11-18T12:22:20;6.20;99.90
76838;DHT22;65797;47.352;8.164;2023-11-18T12:27:41;6.30;1.00
76838;DHT22;65797;47.352;8.164;2023-11-18T12:32:58;6.40;99.90
76838;DHT22;65797;47.352;8.164;2023-11-18T12:35:25;6.40;99.90
76838;DHT22;65797;47.352;8.164;2023-11-18T12:43:16;6.50;99.90
76838;DHT22;65797;47.352;8.164;2023-11-18T12:46:03;6.50;99.90
76838;DHT22;65797;47.352;8.164;2023-11-18T12:48:43;6.50;99.90
76838;DHT22;65797;47.352;8.164;2023-11-18T12:51:10;6.60;99.90
76838;DHT22;65797;47.352;8.164;2023-11-18T12:53:48;6.50;99.90
76838;DHT22;65797;47.352;8.164;2023-11-18T12:56:20;6.50;1.00
76838;DHT22;65797;47.352;8.164;2023-11-18T12:58:46;6.50;1.00
76838;DHT22;65797;47.352;8.164;2023-11-18T13:01:13;6.50;1.00
76838;DHT22;65797;47.352;8.164;2023-11-18T13:03:42;6.40;1.00
76838;DHT22;65797;47.352;8.164;2023-11-18T13:06:09;6.50;1.00
76838;DHT22;65797;47.352;8.164;2023-11-18T13:08:37;6.50;1.00
76838;DHT22;65797;47.352;8.164;2023-11-18T13:11:04;6.60;1.00
76838;DHT22;65797;47.352;8.164;2023-11-18T13:13:34;6.60;1.00
76838;DHT22;65797;47.352;8.164;2023-11-18T13:16:00;6.60;1.00
76838;DHT22;65797;47.352;8.164;2023-11-18T13:18:27;6.50;1.00
76838;DHT22;65797;47.352;8.164;2023-11-18T13:20:57;6.50;1.00
76838;DHT22;65797;47.352;8.164;2023-11-18T13:23:27;6.40;1.00
76838;DHT22;65797;47.352;8.164;2023-11-18T13:25:56;6.50;99.90
76838;DHT22;65797;47.352;8.164;2023-11-18T13:28:26;6.50;99.90
76838;DHT22;65797;47.352;8.164;2023-11-18T13:30:52;6.60;99.90
76838;DHT22;65797;47.352;8.164;2023-11-18T13:33:17;6.60;99.90
76838;DHT22;65797;47.352;8.164;2023-11-18T13:35:44;6.60;99.90
76838;DHT22;65797;47.352;8.164;2023-11-18T13:38:11;6.70;99.90
76838;DHT22;65797;47.352;8.164;2023-11-18T13:40:47;6.70;99.90
76838;DHT22;65797;47.352;8.164;2023-11-18T13:43:13;6.70;1.00
76838;DHT22;65797;47.352;8.164;2023-11-18T13:45:40;6.80;1.00
76838;DHT22;65797;47.352;8.164;2023-11-18T13:48:07;6.80;99.90
76838;DHT22;65797;47.352;8.164;2023-11-18T13:50:37;6.80;99.90
76838;DHT22;65797;47.352;8.164;2023-11-18T13:53:04;6.80;1.00
76838;DHT22;65797;47.352;8.164;2023-11-18T13:55:31;6.80;99.90
76838;DHT22;65797;47.352;8.164;2023-11-18T13:57:58;6.80;99.90
76838;DHT22;65797;47.352;8.164;2023-11-18T14:00:28;6.90;1.00
76838;DHT22;65797;47.352;8.164;2023-11-18T14:02:58;6.90;1.00
76838;DHT22;65797;47.352;8.164;2023-11-18T14:05:24;7.00;1.20
76838;DHT22;65797;47.352;8.164;2023-11-18T14:07:54;7.00;1.00
76838;DHT22;65797;47.352;8.164;2023-11-18T14:10:27;7.10;1.00
76838;DHT22;65797;47.352;8.164;2023-11-18T14:13:06;7.10;1.00
76838;DHT22;65797;47.352;8.164;2023-11-18T14:15:34;7.10;99.90
76838;DHT22;65797;47.352;8.164;2023-11-18T14:18:04;7.00;1.00
76838;DHT22;65797;47.352;8.164;2023-11-18T14:20:30;7.10;1.00
76838;DHT22;65797;47.352;8.164;2023-11-18T14:23:01;7.10;99.90
76838;DHT22;65797;47.352;8.164;2023-11-18T14:25:27;7.10;1.00
76838;DHT22;65797;47.352;8.164;2023-11-18T14:27:53;7.10;1.00
76838;DHT22;65797;47.352;8.164;2023-11-18T14:30:19;7.10;99.90
76838;DHT22;65797;47.352;8.164;2023-11-18T14:32:45;7.10;99.90
76838;DHT22;65797;47.352;8.164;2023-11-18T14:35:12;7.10;99.90
76838;DHT22;65797;47.352;8.164;2023-11-18T14:37:45;7.20;99.90
76838;DHT22;65797;47.352;8.164;2023-11-18T14:40:15;7.20;1.00
76838;DHT22;65797;47.352;8.164;2023-11-18T14:42:46;7.20;1.00
76838;DHT22;65797;47.352;8.164;2023-11-18T14:45:14;7.20;99.90
76838;DHT22;65797;47.352;8.164;2023-11-18T14:47:40;7.20;99.90
76838;DHT22;65797;47.352;8.164;2023-11-18T14:50:07;7.20;99.90
76838;DHT22;65797;47.352;8.164;2023-11-18T14:52:52;7.20;99.90
76838;DHT22;65797;47.352;8.164;2023-11-18T14:55:24;7.10;99.90
76838;DHT22;65797;47.352;8.164;2023-11-18T14:57:51;7.10;99.90
76838;DHT22;65797;47.352;8.164;2023-11-18T15:00:17;7.10;99.90
76838;DHT22;65797;47.352;8.164;2023-11-18T15:02:49;7.10;99.90
76838;DHT22;65797;47.352;8.164;2023-11-18T15:05:16;7.00;99.90
76838;DHT22;65797;47.352;8.164;2023-11-18T15:07:46;7.00;1.00
76838;DHT22;65797;47.352;8.164;2023-11-18T15:10:16;7.00;1.00
76838;DHT22;65797;47.352;8.164;2023-11-18T15:12:47;6.90;1.00
76838;DHT22;65797;47.352;8.164;2023-11-18T15:15:13;6.90;24.90
76838;DHT22;65797;47.352;8.164;2023-11-18T15:17:47;6.90;89.80
76838;DHT22;65797;47.352;8.164;2023-11-18T15:20:16;6.80;99.90
76838;DHT22;65797;47.352;8.164;2023-11-18T15:22:44;6.70;99.90
76838;DHT22;65797;47.352;8.164;2023-11-18T15:25:11;6.70;99.90
76838;DHT22;65797;47.352;8.164;2023-11-18T15:27:39;6.70;99.90
76838;DHT22;65797;47.352;8.164;2023-11-18T15:30:08;6.60;99.90
76838;DHT22;65797;47.352;8.164;2023-11-18T15:32:37;6.60;99.90
76838;DHT22;65797;47.352;8.164;2023-11-18T15:35:03;6.70;99.90
76838;DHT22;65797;47.352;8.164;2023-11-18T15:37:30;6.60;47.60
76838;DHT22;65797;47.352;8.164;2023-11-18T15:39:55;6.60;99.90
76838;DHT22;65797;47.352;8.164;2023-11-18T15:42:21;6.60;99.90
76838;DHT22;65797;47.352;8.164;2023-11-18T15:44:47;6.60;99.90
76838;DHT22;65797;47.352;8.164;2023-11-18T15:47:12;6.60;99.90
76838;DHT22;65797;47.352;8.164;2023-11-18T15:49:39;6.50;1.00
76838;DHT22;65797;47.352;8.164;2023-11-18T15:52:05;6.50;19.20
76838;DHT22;65797;47.352;8.164;2023-11-18T15:54:33;6.50;1.00
76838;DHT22;65797;47.352;8.164;2023-11-18T15:56:59;6.50;46.30
76838;DHT22;65797;47.352;8.164;2023-11-18T15:59:24;6.50;16.50
76838;DHT22;65797;47.352;8.164;2023-11-18T16:01:51;6.50;1.00
76838;DHT22;65797;47.352;8.164;2023-11-18T16:04:17;6.50;1.00
76838;DHT22;65797;47.352;8.164;2023-11-18T16:06:43;6.50;1.00
76838;DHT22;65797;47.352;8.164;2023-11-18T16:09:08;6.50;1.00
76838;DHT22;65797;47.352;8.164;2023-11-18T16:11:34;6.50;1.00
76838;DHT22;65797;47.352;8.164;2023-11-18T16:14:00;6.40;1.00
76838;DHT22;65797;47.352;8.164;2023-11-18T16:16:25;6.40;1.00
76838;DHT22;65797;47.352;8.164;2023-11-18T16:18:53;6.40;1.00
76838;DHT22;65797;47.352;8.164;2023-11-18T16:21:20;6.40;1.00
76838;DHT22;65797;47.352;8.164;2023-11-18T16:23:47;6.40;1.00
76838;DHT22;65797;47.352;8.164;2023-11-18T16:26:13;6.40;1.00
76838;DHT22;65797;47.352;8.164;2023-11-18T16:28:40;6.50;99.90
76838;DHT22;65797;47.352;8.164;2023-11-18T16:31:06;6.40;99.90
76838;DHT22;65797;47.352;8.164;2023-11-18T16:33:32;6.40;1.00
76838;DHT22;65797;47.352;8.164;2023-11-18T16:35:58;6.40;1.00
76838;DHT22;65797;47.352;8.164;2023-11-18T16:38:24;6.40;1.00